createdAt,value
2022-11-20T00:00:18.905Z,98429.94
2022-11-20T00:03:05.685Z,98421.94
2022-11-20T00:05:34.144Z,98413.31
2022-11-20T00:08:00.864Z,98405.66
2022-11-20T00:10:27.928Z,98398.38
2022-11-20T00:12:54.730Z,98394.94
2022-11-20T00:15:21.744Z,98407.19
2022-11-20T00:17:48.505Z,98412.00
2022-11-20T00:20:15.668Z,98412.81
2022-11-20T00:22:42.390Z,98408.44
2022-11-20T00:25:09.713Z,98403.25
2022-11-20T00:27:36.710Z,98398.69
2022-11-20T00:30:04.666Z,98398.78
2022-11-20T00:32:31.404Z,98399.78
2022-11-20T00:34:58.436Z,98403.44
2022-11-20T00:37:25.146Z,98413.94
2022-11-20T00:39:52.196Z,98413.16
2022-11-20T00:42:19.049Z,98402.69
2022-11-20T00:44:46.115Z,98410.50
2022-11-20T00:47:12.879Z,98407.84
2022-11-20T00:49:39.988Z,98408.81
2022-11-20T00:52:06.715Z,98401.75
2022-11-20T00:54:33.747Z,98399.22
2022-11-20T00:57:00.486Z,98400.97
2022-11-20T00:59:27.551Z,98399.28
2022-11-20T01:01:54.307Z,98397.63
2022-11-20T01:04:21.354Z,98398.56
2022-11-20T01:06:48.084Z,98397.63
2022-11-20T01:09:15.227Z,98395.84
2022-11-20T01:11:43.414Z,98389.06
2022-11-20T01:14:12.928Z,98396.28
2022-11-20T01:16:50.437Z,98387.50
2022-11-20T01:19:22.228Z,98390.03
2022-11-20T01:21:51.468Z,98378.88
2022-11-20T01:24:19.481Z,98382.22
2022-11-20T01:26:47.415Z,98384.84
2022-11-20T01:29:22.351Z,98380.44
2022-11-20T01:31:49.334Z,98379.63
2022-11-20T01:34:18.677Z,98369.91
2022-11-20T01:36:45.718Z,98365.59
2022-11-20T01:39:14.992Z,98360.22
2022-11-20T01:42:00.382Z,98358.69
2022-11-20T01:44:55.359Z,98356.09
2022-11-20T01:47:34.407Z,98351.81
2022-11-20T01:50:11.826Z,98347.38
2022-11-20T01:52:49.215Z,98350.06
2022-11-20T01:55:20.961Z,98352.66
2022-11-20T01:57:47.758Z,98346.53
2022-11-20T02:00:16.108Z,98367.84
2022-11-20T02:02:45.531Z,98367.91
2022-11-20T02:05:44.814Z,98373.25
2022-11-20T02:08:11.577Z,98378.56
2022-11-20T02:10:38.617Z,98376.88
2022-11-20T02:13:23.984Z,98380.56
2022-11-20T02:15:51.035Z,98382.44
2022-11-20T02:18:18.744Z,98384.25
2022-11-20T02:20:47.399Z,98385.94
2022-11-20T02:23:37.828Z,98384.25
2022-11-20T02:26:05.923Z,98386.16
2022-11-20T02:28:32.644Z,98388.00
2022-11-20T02:30:59.748Z,98385.34
2022-11-20T02:33:26.524Z,98398.63
2022-11-20T02:35:53.584Z,98398.75
2022-11-20T02:38:20.277Z,98401.38
2022-11-20T02:40:51.404Z,98394.31
2022-11-20T02:43:20.894Z,98396.25
2022-11-20T02:45:47.980Z,98392.59
2022-11-20T02:48:14.760Z,98401.50
2022-11-20T02:50:41.904Z,98393.66
2022-11-20T02:53:08.768Z,98406.03
2022-11-20T02:55:35.803Z,98399.16
2022-11-20T02:58:02.555Z,98405.34
2022-11-20T03:00:29.571Z,98397.56
2022-11-20T03:02:56.359Z,98394.06
2022-11-20T03:05:23.857Z,98395.97
2022-11-20T03:07:50.571Z,98386.28
2022-11-20T03:10:17.851Z,98395.28
2022-11-20T03:12:44.554Z,98400.47
2022-11-20T03:15:11.655Z,98396.03
2022-11-20T03:17:38.416Z,98393.28
2022-11-20T03:20:06.891Z,98398.66
2022-11-20T03:22:33.768Z,98395.22
2022-11-20T03:25:00.781Z,98393.53
2022-11-20T03:27:27.547Z,98389.22
2022-11-20T03:29:54.523Z,98386.75
2022-11-20T03:32:21.219Z,98392.78
2022-11-20T03:34:48.259Z,98399.91
2022-11-20T03:37:15.018Z,98393.81
2022-11-20T03:39:42.084Z,98399.06
2022-11-20T03:42:29.512Z,98399.13
2022-11-20T03:44:56.576Z,98400.94
2022-11-20T03:47:23.307Z,98400.13
2022-11-20T03:49:50.355Z,98399.28
2022-11-20T03:52:17.118Z,98401.97
2022-11-20T03:54:44.184Z,98402.94
2022-11-20T03:57:10.886Z,98396.84
2022-11-20T03:59:37.890Z,98395.97
2022-11-20T04:02:04.633Z,98392.47
2022-11-20T04:04:31.742Z,98385.44
2022-11-20T04:06:58.535Z,98384.59
2022-11-20T04:09:25.659Z,98386.41
2022-11-20T04:11:52.395Z,98379.34
2022-11-20T04:14:19.465Z,98384.66
2022-11-20T04:16:46.206Z,98379.50
2022-11-20T04:19:15.049Z,98382.97
2022-11-20T04:21:42.363Z,98384.75
2022-11-20T04:24:09.581Z,98379.56
2022-11-20T04:26:36.301Z,98374.47
2022-11-20T04:29:03.399Z,98378.75
2022-11-20T04:31:33.594Z,98371.84
2022-11-20T04:34:04.859Z,98369.44
2022-11-20T04:36:31.905Z,98372.88
2022-11-20T04:39:01.018Z,98360.63
2022-11-20T04:41:29.609Z,98366.69
2022-11-20T04:44:00.588Z,98369.38
2022-11-20T04:46:28.024Z,98367.78
2022-11-20T04:48:55.015Z,98364.25
2022-11-20T04:51:21.767Z,98362.59
2022-11-20T04:53:48.873Z,98362.59
2022-11-20T04:56:15.769Z,98356.38
2022-11-20T04:58:42.882Z,98345.13
2022-11-20T05:01:14.355Z,98343.25
2022-11-20T05:03:42.649Z,98333.72
2022-11-20T05:06:10.583Z,98338.88
2022-11-20T05:08:37.632Z,98330.19
2022-11-20T05:11:09.489Z,98337.22
2022-11-20T05:13:36.680Z,98346.78
2022-11-20T05:16:08.331Z,98342.59
2022-11-20T05:18:35.909Z,98348.75
2022-11-20T05:21:02.731Z,98337.38
2022-11-20T05:23:31.804Z,98335.53
2022-11-20T05:25:59.334Z,98335.72
2022-11-20T05:28:27.368Z,98333.88
2022-11-20T05:30:54.186Z,98331.38
2022-11-20T05:33:21.581Z,98333.25
2022-11-20T05:35:49.413Z,98336.72
2022-11-20T05:38:16.671Z,98329.72
2022-11-20T05:40:43.656Z,98329.63
2022-11-20T05:43:10.769Z,98329.88
2022-11-20T05:45:37.562Z,98320.31
2022-11-20T05:48:04.790Z,98321.19
2022-11-20T05:50:31.540Z,98321.13
2022-11-20T05:53:01.670Z,98320.31
2022-11-20T05:55:28.603Z,98315.16
2022-11-20T05:57:56.074Z,98314.22
2022-11-20T06:00:23.188Z,98305.69
2022-11-20T06:02:50.341Z,98314.22
2022-11-20T06:05:17.162Z,98308.22
2022-11-20T06:07:44.178Z,98313.47
2022-11-20T06:10:12.535Z,98315.25
2022-11-20T06:12:39.574Z,98321.50
2022-11-20T06:15:06.893Z,98318.03
2022-11-20T06:17:33.910Z,98322.47
2022-11-20T06:20:00.605Z,98317.19
2022-11-20T06:22:27.641Z,98314.66
2022-11-20T06:24:54.317Z,98316.47
2022-11-20T06:27:21.346Z,98314.66
2022-11-20T06:29:48.115Z,98326.97
2022-11-20T06:32:15.142Z,98326.31
2022-11-20T06:34:41.867Z,98329.13
2022-11-20T06:37:08.870Z,98324.66
2022-11-20T06:39:35.615Z,98323.78
2022-11-20T06:42:02.654Z,98317.63
2022-11-20T06:44:29.405Z,98308.56
2022-11-20T06:46:56.445Z,98304.19
2022-11-20T06:49:23.621Z,98292.91
2022-11-20T06:51:50.786Z,98294.63
2022-11-20T06:54:17.493Z,98305.19
2022-11-20T06:56:48.755Z,98296.44
2022-11-20T06:59:15.489Z,98297.25
2022-11-20T07:01:42.508Z,98294.63
2022-11-20T07:04:09.269Z,98292.72
2022-11-20T07:06:36.305Z,98289.19
2022-11-20T07:09:03.181Z,98287.44
2022-11-20T07:11:30.218Z,98293.63
2022-11-20T07:13:57.792Z,98282.19
2022-11-20T07:16:24.864Z,98286.53
2022-11-20T07:18:51.557Z,98281.09
2022-11-20T07:21:18.602Z,98284.50
2022-11-20T07:23:45.336Z,98287.94
2022-11-20T07:26:12.430Z,98286.13
2022-11-20T07:28:39.259Z,98289.47
2022-11-20T07:31:07.738Z,98292.06
2022-11-20T07:33:34.917Z,98287.94
2022-11-20T07:36:02.229Z,98288.66
2022-11-20T07:38:29.170Z,98294.81
2022-11-20T07:40:57.474Z,98291.38
2022-11-20T07:43:25.132Z,98282.41
2022-11-20T07:45:52.172Z,98289.44
2022-11-20T07:48:18.876Z,98297.22
2022-11-20T07:50:45.883Z,98296.31
2022-11-20T07:53:13.702Z,98287.25
2022-11-20T07:55:40.943Z,98301.41
2022-11-20T07:58:07.794Z,98296.97
2022-11-20T08:00:34.833Z,98310.84
2022-11-20T08:03:04.988Z,98309.00
2022-11-20T08:05:32.041Z,98313.31
2022-11-20T08:07:58.773Z,98307.00
2022-11-20T08:10:25.986Z,98300.75
2022-11-20T08:13:11.844Z,98298.00
2022-11-20T08:15:40.780Z,98304.03
2022-11-20T08:18:29.917Z,98300.31
2022-11-20T08:20:56.264Z,98307.28
2022-11-20T08:23:23.652Z,98303.63
2022-11-20T08:25:50.986Z,98309.63
2022-11-20T08:28:21.161Z,98316.53
2022-11-20T08:30:49.978Z,98311.00
2022-11-20T08:33:18.381Z,98303.00
2022-11-20T08:35:45.527Z,98301.84
2022-11-20T08:38:12.286Z,98304.34
2022-11-20T08:40:39.324Z,98296.28
2022-11-20T08:43:06.030Z,98308.25
2022-11-20T08:45:34.887Z,98303.69
2022-11-20T08:48:02.911Z,98310.56
2022-11-20T08:50:31.711Z,98321.72
2022-11-20T08:53:06.113Z,98322.47
2022-11-20T08:55:33.333Z,98318.81
2022-11-20T08:58:04.638Z,98316.94
2022-11-20T09:00:31.713Z,98316.63
2022-11-20T09:02:59.626Z,98319.09
2022-11-20T09:05:26.722Z,98315.31
2022-11-20T09:07:56.691Z,98314.34
2022-11-20T09:10:24.940Z,98308.88
2022-11-20T09:12:53.248Z,98307.78
2022-11-20T09:15:20.351Z,98305.00
2022-11-20T09:17:57.813Z,98307.38
2022-11-20T09:20:25.388Z,98302.84
2022-11-20T09:22:52.420Z,98306.03
2022-11-20T09:25:19.527Z,98298.81
2022-11-20T09:27:47.152Z,98291.53
2022-11-20T09:30:15.263Z,98292.34
2022-11-20T09:32:42.262Z,98287.81
2022-11-20T09:35:09.752Z,98280.66
2022-11-20T09:37:36.752Z,98278.03
2022-11-20T09:40:04.116Z,98277.03
2022-11-20T09:42:48.961Z,98273.84
2022-11-20T09:45:47.169Z,98272.75
2022-11-20T09:48:16.688Z,98264.75
2022-11-20T09:50:48.855Z,98268.91
2022-11-20T09:53:41.959Z,98255.44
2022-11-20T09:56:09.796Z,98261.41
2022-11-20T09:58:55.749Z,98264.72
2022-11-20T10:01:24.625Z,98253.84
2022-11-20T10:04:03.622Z,98253.56
2022-11-20T10:06:42.340Z,98247.19
2022-11-20T10:09:27.988Z,98248.69
2022-11-20T10:12:07.257Z,98238.53
2022-11-20T10:14:46.100Z,98241.00
2022-11-20T10:17:32.048Z,98233.59
2022-11-20T10:20:32.537Z,98236.91
2022-11-20T10:23:40.965Z,98239.44
2022-11-20T10:26:23.894Z,98228.50
2022-11-20T10:29:02.391Z,98224.84
2022-11-20T10:31:34.472Z,98218.44
2022-11-20T10:34:11.978Z,98218.38
2022-11-20T10:36:42.649Z,98208.41
2022-11-20T10:39:20.232Z,98209.69
2022-11-20T10:41:48.540Z,98204.09
2022-11-20T10:44:39.928Z,98218.84
2022-11-20T10:47:22.653Z,98212.31
2022-11-20T10:49:52.295Z,98217.31
2022-11-20T10:52:50.418Z,98205.53
2022-11-20T10:55:46.180Z,98213.38
2022-11-20T10:58:34.642Z,98205.06
2022-11-20T11:01:24.174Z,98208.34
2022-11-20T11:03:52.756Z,98208.97
2022-11-20T11:06:41.095Z,98201.63
2022-11-20T11:09:18.394Z,98205.88
2022-11-20T11:11:45.401Z,98203.75
2022-11-20T11:14:15.864Z,98190.25
2022-11-20T11:16:58.630Z,98196.97
2022-11-20T11:19:25.840Z,98196.81
2022-11-20T11:21:57.519Z,98187.78
2022-11-20T11:24:42.823Z,98186.63
2022-11-20T11:27:17.215Z,98194.19
2022-11-20T11:29:44.927Z,98189.69
2022-11-20T11:32:15.060Z,98197.38
2022-11-20T11:34:41.826Z,98195.34
2022-11-20T11:37:19.282Z,98195.97
2022-11-20T11:39:47.551Z,98181.56
2022-11-20T11:42:19.519Z,98183.81
2022-11-20T11:45:05.990Z,98180.75
2022-11-20T11:47:39.127Z,98172.69
2022-11-20T11:50:22.095Z,98172.59
2022-11-20T11:53:07.429Z,98167.88
2022-11-20T11:56:00.045Z,98160.41
2022-11-20T11:58:42.286Z,98160.94
2022-11-20T12:01:12.859Z,98152.72
2022-11-20T12:03:42.297Z,98156.66
2022-11-20T12:06:15.748Z,98160.09
2022-11-20T12:08:47.865Z,98158.09
2022-11-20T12:11:19.495Z,98155.28
2022-11-20T12:13:46.620Z,98149.53
2022-11-20T12:16:15.635Z,98144.78
2022-11-20T12:18:42.995Z,98135.59
2022-11-20T12:21:25.426Z,98139.81
2022-11-20T12:24:16.529Z,98141.25
2022-11-20T12:26:56.515Z,98137.34
2022-11-20T12:29:46.819Z,98138.31
2022-11-20T12:32:16.590Z,98132.81
2022-11-20T12:35:01.439Z,98134.34
2022-11-20T12:37:45.687Z,98133.13
2022-11-20T12:40:34.136Z,98126.78
2022-11-20T12:43:25.414Z,98124.09
2022-11-20T12:46:18.316Z,98122.19
2022-11-20T12:48:48.066Z,98118.59
2022-11-20T12:51:54.628Z,98113.19
2022-11-20T12:54:51.982Z,98113.53
2022-11-20T12:57:35.533Z,98114.13
2022-11-20T13:00:07.316Z,98111.44
2022-11-20T13:02:40.228Z,98104.59
2022-11-20T13:05:19.242Z,98102.69
2022-11-20T13:07:47.032Z,98105.34
2022-11-20T13:10:25.878Z,98103.28
2022-11-20T13:12:58.477Z,98105.19
2022-11-20T13:15:43.996Z,98100.88
2022-11-20T13:18:11.416Z,98097.19
2022-11-20T13:20:42.672Z,98095.47
2022-11-20T13:23:09.752Z,98091.88
2022-11-20T13:25:38.212Z,98087.56
2022-11-20T13:28:12.498Z,98090.88
2022-11-20T13:30:50.564Z,98086.53
2022-11-20T13:33:31.689Z,98085.66
2022-11-20T13:36:20.589Z,98078.44
2022-11-20T13:38:49.267Z,98081.03
2022-11-20T13:41:36.586Z,98084.63
2022-11-20T13:44:09.860Z,98081.03
2022-11-20T13:46:40.698Z,98075.56
2022-11-20T13:49:10.337Z,98073.88
2022-11-20T13:51:51.604Z,98075.78
2022-11-20T13:54:52.716Z,98073.88
2022-11-20T13:57:33.714Z,98078.16
2022-11-20T14:00:21.893Z,98079.97
2022-11-20T14:03:06.791Z,98080.91
2022-11-20T14:05:41.526Z,98086.34
2022-11-20T14:08:15.494Z,98089.78
2022-11-20T14:10:42.790Z,98073.69
2022-11-20T14:13:20.012Z,98071.88
2022-11-20T14:15:47.169Z,98064.72
2022-11-20T14:18:15.947Z,98071.69
2022-11-20T14:20:43.431Z,98061.97
2022-11-20T14:23:11.065Z,98060.28
2022-11-20T14:25:38.232Z,98054.94
2022-11-20T14:28:04.982Z,98052.28
2022-11-20T14:30:52.417Z,98048.75
2022-11-20T14:33:20.843Z,98059.31
2022-11-20T14:35:58.032Z,98061.22
2022-11-20T14:38:27.023Z,98049.72
2022-11-20T14:40:54.116Z,98048.66
2022-11-20T14:43:28.074Z,98055.03
2022-11-20T14:46:02.421Z,98053.22
2022-11-20T14:48:39.311Z,98056.06
2022-11-20T14:51:06.412Z,98059.69
2022-11-20T14:53:33.170Z,98056.34
2022-11-20T14:56:02.077Z,98055.31
2022-11-20T14:58:31.154Z,98058.56
2022-11-20T15:01:02.993Z,98061.22
2022-11-20T15:03:37.495Z,98063.13
2022-11-20T15:06:08.910Z,98059.78
2022-11-20T15:08:35.696Z,98059.00
2022-11-20T15:11:02.879Z,98047.69
2022-11-20T15:13:37.468Z,98052.91
2022-11-20T15:16:05.604Z,98048.56
2022-11-20T15:18:34.074Z,98044.25
2022-11-20T15:21:04.895Z,98052.25
2022-11-20T15:23:31.611Z,98048.66
2022-11-20T15:25:58.718Z,98040.84
2022-11-20T15:28:31.606Z,98032.84
2022-11-20T15:30:58.922Z,98033.94
2022-11-20T15:33:25.659Z,98028.63
2022-11-20T15:35:52.724Z,98038.25
2022-11-20T15:38:19.421Z,98031.19
2022-11-20T15:40:46.455Z,98033.88
2022-11-20T15:43:14.078Z,98037.50
2022-11-20T15:45:43.765Z,98041.84
2022-11-20T15:48:14.430Z,98039.19
2022-11-20T15:51:00.963Z,98032.00
2022-11-20T15:53:28.204Z,98020.63
2022-11-20T15:55:55.323Z,98025.13
2022-11-20T15:58:23.939Z,98019.78
2022-11-20T16:00:51.398Z,98013.50
2022-11-20T16:03:18.473Z,98007.31
2022-11-20T16:05:45.677Z,98013.59
2022-11-20T16:08:12.470Z,98005.63
2022-11-20T16:10:39.986Z,98018.94
2022-11-20T16:13:32.506Z,98027.94
2022-11-20T16:16:00.333Z,98033.28
2022-11-20T16:18:27.055Z,98021.78
2022-11-20T16:20:54.609Z,98025.69
2022-11-20T16:23:21.609Z,98020.22
2022-11-20T16:25:48.847Z,98028.34
2022-11-20T16:28:18.929Z,98030.88
2022-11-20T16:30:46.842Z,98021.38
2022-11-20T16:33:15.285Z,98021.28
2022-11-20T16:35:42.509Z,98030.41
2022-11-20T16:38:09.315Z,98030.50
2022-11-20T16:40:36.446Z,98037.53
2022-11-20T16:43:09.743Z,98040.38
2022-11-20T16:45:41.270Z,98034.56
2022-11-20T16:48:08.060Z,98036.38
2022-11-20T16:50:35.086Z,98048.03
2022-11-20T16:53:01.821Z,98046.44
2022-11-20T16:55:28.846Z,98037.38
2022-11-20T16:57:55.583Z,98039.13
2022-11-20T17:00:22.642Z,98030.28
2022-11-20T17:02:49.474Z,98037.38
2022-11-20T17:05:16.604Z,98031.22
2022-11-20T17:07:43.343Z,98035.59
2022-11-20T17:10:10.418Z,98035.03
2022-11-20T17:12:37.172Z,98033.97
2022-11-20T17:15:04.598Z,98035.78
2022-11-20T17:17:31.317Z,98032.34
2022-11-20T17:19:58.759Z,98017.41
2022-11-20T17:22:25.484Z,98011.13
2022-11-20T17:24:52.512Z,98019.31
2022-11-20T17:27:19.189Z,98014.06
2022-11-20T17:29:46.249Z,98002.66
2022-11-20T17:32:13.071Z,98007.97
2022-11-20T17:34:40.116Z,98006.44
2022-11-20T17:37:06.915Z,98001.09
2022-11-20T17:39:34.011Z,97985.13
2022-11-20T17:42:19.178Z,97988.66
2022-11-20T17:44:47.388Z,97994.94
2022-11-20T17:47:14.206Z,97980.84
2022-11-20T17:49:41.331Z,97987.03
2022-11-20T17:52:08.029Z,98003.00
2022-11-20T17:54:35.215Z,98011.16
2022-11-20T17:57:20.484Z,98017.81
2022-11-20T17:59:47.569Z,98015.22
2022-11-20T18:02:14.506Z,98013.31
2022-11-20T18:04:41.598Z,98014.97
2022-11-20T18:07:08.721Z,98007.91
2022-11-20T18:09:35.743Z,98011.72
2022-11-20T18:12:02.468Z,98011.13
2022-11-20T18:14:32.869Z,98010.06
2022-11-20T18:17:02.705Z,98007.31
2022-11-20T18:19:42.604Z,98011.81
2022-11-20T18:22:12.583Z,98007.50
2022-11-20T18:24:39.974Z,98007.41
2022-11-20T18:27:07.456Z,98003.81
2022-11-20T18:29:34.570Z,98003.81
2022-11-20T18:32:01.583Z,98009.22
2022-11-20T18:34:28.729Z,97998.56
2022-11-20T18:36:55.504Z,98011.81
2022-11-20T18:39:23.640Z,98008.47
2022-11-20T18:42:09.056Z,98006.56
2022-11-20T18:44:55.045Z,98010.06
2022-11-20T18:47:22.908Z,98007.50
2022-11-20T18:49:54.373Z,98003.22
2022-11-20T18:52:23.154Z,98001.41
2022-11-20T18:54:50.455Z,98000.47
2022-11-20T18:57:18.427Z,98002.34
2022-11-20T18:59:45.709Z,97999.59
2022-11-20T19:02:13.598Z,97996.19
2022-11-20T19:04:40.850Z,97991.81
2022-11-20T19:07:07.887Z,97999.69
2022-11-20T19:09:34.945Z,97999.59
2022-11-20T19:12:01.645Z,97992.00
2022-11-20T19:14:28.642Z,97998.75
2022-11-20T19:16:55.410Z,97997.03
2022-11-20T19:19:22.660Z,97990.84
2022-11-20T19:21:49.602Z,97987.34
2022-11-20T19:24:16.806Z,97988.88
2022-11-20T19:26:43.644Z,97986.13
2022-11-20T19:29:11.394Z,97978.13
2022-11-20T19:31:38.114Z,97988.69
2022-11-20T19:34:05.128Z,97986.88
2022-11-20T19:36:39.166Z,97987.94
2022-11-20T19:39:10.490Z,97990.41
2022-11-20T19:41:38.334Z,97985.94
2022-11-20T19:44:15.487Z,97991.19
2022-11-20T19:46:42.426Z,97989.47
2022-11-20T19:49:10.908Z,97995.75
2022-11-20T19:51:38.575Z,97978.81
2022-11-20T19:54:05.891Z,97982.44
2022-11-20T19:56:33.407Z,97977.78
2022-11-20T19:59:00.895Z,97972.97
2022-11-20T20:01:29.301Z,97965.00
2022-11-20T20:03:58.370Z,97982.59
2022-11-20T20:06:25.857Z,97974.44
2022-11-20T20:08:57.290Z,97974.44
2022-11-20T20:11:25.089Z,97970.75
2022-11-20T20:13:52.389Z,97970.66
2022-11-20T20:16:20.745Z,97974.28
2022-11-20T20:18:47.995Z,97971.53
2022-11-20T20:21:16.830Z,97969.03
2022-11-20T20:23:44.457Z,97968.00
2022-11-20T20:26:11.350Z,97968.06
2022-11-20T20:28:38.561Z,97971.19
2022-11-20T20:31:15.980Z,97970.91
2022-11-20T20:33:43.234Z,97960.97
2022-11-20T20:36:11.233Z,97961.13
2022-11-20T20:38:38.232Z,97956.84
2022-11-20T20:41:05.117Z,97959.69
2022-11-20T20:43:32.138Z,97958.41
2022-11-20T20:45:58.844Z,97956.84
2022-11-20T20:48:25.936Z,97968.06
2022-11-20T20:51:00.110Z,97964.31
2022-11-20T20:53:27.606Z,97963.34
2022-11-20T20:55:58.189Z,97962.06
2022-11-20T20:58:25.350Z,97967.22
2022-11-20T21:00:52.216Z,97963.72
2022-11-20T21:03:19.279Z,97963.63
2022-11-20T21:05:46.327Z,97956.66
2022-11-20T21:08:22.502Z,97962.94
2022-11-20T21:10:49.418Z,97957.91
2022-11-20T21:13:16.453Z,97969.88
2022-11-20T21:15:43.436Z,97975.31
2022-11-20T21:18:10.489Z,97980.28
2022-11-20T21:20:58.458Z,97977.88
2022-11-20T21:23:25.503Z,97991.34
2022-11-20T21:25:52.296Z,97992.72
2022-11-20T21:28:19.355Z,97995.66
2022-11-20T21:30:46.604Z,98001.81
2022-11-20T21:33:13.939Z,97997.28
2022-11-20T21:35:41.483Z,97988.59
2022-11-20T21:38:08.550Z,97991.00
2022-11-20T21:40:35.305Z,97994.78
2022-11-20T21:43:02.341Z,97985.84
2022-11-20T21:45:29.092Z,97986.72
2022-11-20T21:47:56.081Z,97991.28
2022-11-20T21:50:24.033Z,97991.34
2022-11-20T21:52:51.955Z,97990.00
2022-11-20T21:55:18.699Z,97986.03
2022-11-20T21:57:45.811Z,97985.84
2022-11-20T22:00:13.144Z,97975.56
2022-11-20T22:02:40.509Z,97982.28
2022-11-20T22:05:08.156Z,97979.09
2022-11-20T22:07:35.424Z,97983.72
2022-11-20T22:10:02.259Z,97987.16
2022-11-20T22:12:29.287Z,97985.44
2022-11-20T22:14:55.983Z,97980.03
2022-11-20T22:17:43.054Z,97983.53
2022-11-20T22:20:10.304Z,97989.84
2022-11-20T22:22:37.317Z,97991.53
2022-11-20T22:25:04.274Z,97991.91
2022-11-20T22:27:31.359Z,97990.94
2022-11-20T22:29:58.127Z,97996.84
2022-11-20T22:32:25.153Z,97999.69
2022-11-20T22:34:51.899Z,97999.00
2022-11-20T22:37:18.928Z,98001.97
2022-11-20T22:39:45.623Z,98004.03
2022-11-20T22:42:12.612Z,98003.16
2022-11-20T22:44:39.347Z,97994.16
2022-11-20T22:47:11.226Z,97990.00
2022-11-20T22:49:38.300Z,97986.50
2022-11-20T22:52:05.376Z,97981.44
2022-11-20T22:54:32.149Z,97979.47
2022-11-20T22:56:59.200Z,97982.22
2022-11-20T22:59:26.146Z,97984.00
2022-11-20T23:01:53.357Z,97990.81
2022-11-20T23:04:20.163Z,97982.91
2022-11-20T23:06:47.185Z,97995.63
2022-11-20T23:09:13.999Z,97985.22
2022-11-20T23:11:41.018Z,97982.22
2022-11-20T23:14:12.303Z,97976.66
2022-11-20T23:16:39.442Z,97972.94
2022-11-20T23:19:11.165Z,97984.56
2022-11-20T23:21:38.987Z,97996.22
2022-11-20T23:24:06.242Z,98004.88
2022-11-20T23:26:35.337Z,98002.38
2022-11-20T23:29:02.162Z,98013.22
2022-11-20T23:31:30.605Z,98004.66
2022-11-20T23:33:57.390Z,97998.19
2022-11-20T23:36:24.422Z,98000.00
2022-11-20T23:38:51.144Z,98002.84
2022-11-20T23:41:18.170Z,97994.69
2022-11-20T23:43:44.885Z,97995.03
2022-11-20T23:46:16.208Z,97991.44
2022-11-20T23:48:44.873Z,97996.81
2022-11-20T23:51:12.030Z,97990.53
2022-11-20T23:53:38.733Z,97987.13
2022-11-20T23:56:06.058Z,97978.47
2022-11-20T23:58:34.554Z,97975.13
